Time;durP1;ratioP1;P1;durP2;ratioP2;P2;SDS_P1;SDS_P2;PMS_P1;PMS_P2;Temp;Humidity;BMP_temperature;BMP_pressure;BME280_temperature;BME280_humidity;BME280_pressure;Samples;Min_cycle;Max_cycle;Signal;HPM_P1;HPM_P2
2022/10/08 00:06:22;;;;;;;0.73;0.73;;;;;;;12.60;67.35;101199.06;18301657;32;20086;-58
2022/10/08 00:16:27;;;;;;;1.05;0.88;;;;;;;12.60;67.26;101189.44;18288290;32;20439;-58
2022/10/08 00:26:34;;;;;;;0.30;0.30;;;;;;;12.43;67.20;101175.47;18300729;32;20090;-58
2022/10/08 00:36:44;;;;;;;4.25;1.23;;;;;;;12.23;67.71;101163.16;18300227;32;20090;-58
2022/10/08 00:46:49;;;;;;;2.40;0.95;;;;;;;12.19;66.81;101167.53;18299447;32;20090;-58
2022/10/08 00:56:53;;;;;;;2.50;1.52;;;;;;;12.00;67.60;101158.69;18308204;32;20119;-58
2022/10/08 01:07:03;;;;;;;0.75;0.75;;;;;;;12.15;66.54;101152.66;18307445;32;20128;-58
2022/10/08 01:17:11;;;;;;;1.75;1.65;;;;;;;12.05;66.80;101145.66;18307622;32;20124;-58
2022/10/08 01:27:28;;;;;;;0.88;0.88;;;;;;;11.71;67.33;101138.50;18307454;32;20378;-58
2022/10/08 01:37:36;;;;;;;0.77;0.77;;;;;;;11.92;66.75;101135.13;18306996;32;20378;-58
2022/10/08 01:47:43;;;;;;;0.50;0.50;;;;;;;11.65;67.46;101128.91;18278857;32;20102;-57
2022/10/08 01:57:47;;;;;;;0.50;0.50;;;;;;;11.58;67.45;101116.66;18243403;32;20362;-58
2022/10/08 02:07:53;;;;;;;0.55;0.55;;;;;;;11.57;67.54;101103.56;18241892;32;20386;-58
2022/10/08 02:17:58;;;;;;;1.27;0.98;;;;;;;11.44;67.29;101102.66;18242824;32;20113;-58
2022/10/08 02:28:08;;;;;;;1.30;0.95;;;;;;;11.29;68.41;101099.06;18242734;32;20461;-58
2022/10/08 02:38:14;;;;;;;1.90;1.15;;;;;;;11.06;69.49;101091.06;18242187;32;20434;-58
2022/10/08 02:48:22;;;;;;;0.62;0.62;;;;;;;11.21;68.47;101092.91;18242040;32;20502;-58
2022/10/08 02:58:25;;;;;;;0.50;0.50;;;;;;;11.20;67.48;101088.56;18265716;32;20216;-58
2022/10/08 03:08:30;;;;;;;0.40;0.40;;;;;;;10.96;68.98;101090.16;18304155;32;20108;-58
2022/10/08 03:18:34;;;;;;;0.80;0.80;;;;;;;11.07;68.12;101087.59;18303846;32;20128;-58
2022/10/08 03:28:38;;;;;;;0.73;0.73;;;;;;;11.01;67.92;101082.34;18303824;32;20144;-58
2022/10/08 03:38:41;;;;;;;0.95;0.95;;;;;;;10.95;68.11;101086.66;18303282;32;20094;-58
2022/10/08 03:48:48;;;;;;;0.35;0.35;;;;;;;11.05;67.23;101078.88;18303880;32;20106;-58
2022/10/08 03:58:55;;;;;;;0.50;0.50;;;;;;;10.87;67.91;101083.09;18302643;32;20129;-58
2022/10/08 04:08:59;;;;;;;0.50;0.50;;;;;;;10.77;68.06;101082.16;18301672;32;20454;-57
2022/10/08 04:19:02;;;;;;;0.45;0.45;;;;;;;10.71;67.85;101078.63;18301102;32;20094;-58
2022/10/08 04:29:08;;;;;;;0.60;0.60;;;;;;;10.80;67.88;101068.25;18305723;32;20196;-58
2022/10/08 04:39:11;;;;;;;1.05;0.95;;;;;;;10.57;67.83;101073.28;18308839;32;20089;-57
2022/10/08 04:49:15;;;;;;;0.50;0.50;;;;;;;10.51;68.51;101071.50;18309421;32;20090;-57
2022/10/08 04:59:18;;;;;;;1.52;1.27;;;;;;;10.41;67.77;101067.91;18308205;32;20116;-57
2022/10/08 05:09:23;;;;;;;0.70;0.70;;;;;;;10.59;67.64;101064.59;18307397;32;20125;-58
2022/10/08 05:19:26;;;;;;;0.95;0.95;;;;;;;10.31;69.17;101074.75;18307638;32;20105;-58
2022/10/08 05:29:30;;;;;;;0.60;0.60;;;;;;;10.54;68.40;101082.84;18308279;32;20155;-58
2022/10/08 05:39:34;;;;;;;0.50;0.50;;;;;;;10.52;68.27;101089.78;18308305;32;20090;-57
2022/10/08 05:49:38;;;;;;;0.50;0.50;;;;;;;10.66;69.15;101096.84;18250402;32;20114;-58
2022/10/08 05:59:41;;;;;;;1.35;1.25;;;;;;;11.01;69.01;101108.47;18266748;32;20098;-58
2022/10/08 06:09:46;;;;;;;1.12;0.80;;;;;;;11.46;68.99;101120.06;18291821;32;20102;-58
2022/10/08 06:19:49;;;;;;;0.37;0.37;;;;;;;12.13;68.42;101125.63;18281278;32;20108;-58
2022/10/08 06:29:53;;;;;;;0.65;0.65;;;;;;;12.74;68.26;101117.88;18305596;32;20111;-57
2022/10/08 06:39:56;;;;;;;1.48;0.93;;;;;;;13.28;68.20;101128.31;18306371;32;20445;-57
2022/10/08 06:50:01;;;;;;;1.77;0.88;;;;;;;13.95;69.58;101137.75;18304313;32;20133;-58
2022/10/08 07:00:05;;;;;;;0.77;0.57;;;;;;;15.59;67.87;101133.00;18304634;32;20116;-58
2022/10/08 07:10:10;;;;;;;0.20;0.20;;;;;;;18.30;59.40;101125.88;18287769;32;20110;-58
2022/10/08 07:20:13;;;;;;;0.45;0.43;;;;;;;19.16;55.40;101118.53;18285014;32;20109;-59
2022/10/08 07:30:18;;;;;;;0.30;0.30;;;;;;;18.39;57.40;101119.53;18298167;32;20138;-58
2022/10/08 07:40:21;;;;;;;0.62;0.62;;;;;;;18.19;57.52;101119.97;18289208;32;20102;-58
2022/10/08 07:50:26;;;;;;;0.28;0.20;;;;;;;18.24;58.26;101120.75;18303995;32;20418;-58
2022/10/08 08:00:29;;;;;;;0.30;0.30;;;;;;;18.06;58.45;101128.19;18304228;32;20446;-58
2022/10/08 08:10:33;;;;;;;1.12;1.02;;;;;;;18.15;59.08;101116.53;18308124;32;20185;-58
2022/10/08 08:20:36;;;;;;;0.30;0.30;;;;;;;17.99;59.51;101116.84;18310391;32;20371;-58
2022/10/08 08:30:41;;;;;;;0.55;0.55;;;;;;;18.03;59.67;101118.53;18290362;32;20094;-58
2022/10/08 08:40:44;;;;;;;0.68;0.68;;;;;;;18.76;58.15;101099.25;18288550;32;20400;-58
2022/10/08 08:50:49;;;;;;;0.40;0.40;;;;;;;18.77;57.48;101099.22;18309203;32;20117;-58
2022/10/08 09:00:56;;;;;;;0.22;0.22;;;;;;;19.21;57.79;101085.75;18303194;32;20161;-58
2022/10/08 09:11:02;;;;;;;0.30;0.30;;;;;;;19.64;55.30;101090.75;18308549;32;20105;-58
2022/10/08 09:21:05;;;;;;;0.10;0.10;;;;;;;20.46;53.17;101085.59;18307975;32;20339;-58
2022/10/08 09:31:24;;;;;;;0.32;0.32;;;;;;;20.57;52.21;101079.94;18302705;32;20145;-58
2022/10/08 09:41:29;;;;;;;0.20;0.20;;;;;;;20.56;51.68;101072.88;18307247;32;20110;-58
2022/10/08 09:51:34;;;;;;;0.47;0.30;;;;;;;20.52;52.57;101064.16;18288319;32;20175;-58
2022/10/08 10:01:44;;;;;;;0.10;0.10;;;;;;;20.37;51.90;101057.59;18291511;32;20137;-58
2022/10/08 10:11:52;;;;;;;0.20;0.20;;;;;;;20.00;53.20;101048.16;18306006;32;20241;-58
2022/10/08 10:21:59;;;;;;;0.10;0.10;;;;;;;20.52;52.95;101050.06;18305193;32;20339;-58
2022/10/08 10:32:09;;;;;;;0.45;0.45;;;;;;;20.89;51.33;101030.25;18305788;32;20110;-58
2022/10/08 10:42:20;;;;;;;0.20;0.20;;;;;;;21.53;49.12;101017.28;18305731;32;20484;-58
2022/10/08 10:52:44;;;;;;;0.20;0.20;;;;;;;21.38;46.14;100986.88;18292276;32;20839;-58
2022/10/08 11:02:51;;;;;;;0.00;0.00;;;;;;;21.58;44.87;100969.31;18298584;32;208266;-58
2022/10/08 11:12:59;;;;;;;0.00;0.00;;;;;;;22.36;43.46;100966.19;18304664;32;20409;-58
2022/10/08 11:23:10;;;;;;;0.20;0.20;;;;;;;22.57;43.49;100949.34;18304357;32;20118;-58
2022/10/08 11:33:16;;;;;;;0.03;0.03;;;;;;;22.86;42.65;100936.53;18303820;32;20133;-58
2022/10/08 11:43:27;;;;;;;0.10;0.10;;;;;;;22.96;42.06;100928.13;18304460;32;20105;-58
2022/10/08 11:53:32;;;;;;;0.82;0.40;;;;;;;23.14;41.12;100911.28;18289767;32;20792;-58
2022/10/08 12:03:37;;;;;;;0.17;0.10;;;;;;;22.83;43.43;100909.19;18302350;32;20104;-58
2022/10/08 12:13:41;;;;;;;0.10;0.10;;;;;;;23.23;41.02;100890.47;18301719;32;20133;-58
2022/10/08 12:23:45;;;;;;;0.15;0.10;;;;;;;22.90;41.76;100877.81;18300855;32;20094;-58
2022/10/08 12:34:01;;;;;;;0.10;0.10;;;;;;;22.75;40.62;100869.59;18300176;32;20122;-58
2022/10/08 12:44:08;;;;;;;0.00;0.00;;;;;;;23.00;41.87;100858.69;18299711;32;20085;-58
2022/10/08 12:54:20;;;;;;;0.10;0.10;;;;;;;23.04;41.58;100846.06;18308370;32;20089;-58
2022/10/08 13:04:25;;;;;;;0.08;0.08;;;;;;;22.98;40.34;100841.06;18308246;32;20116;-58
2022/10/08 13:14:31;;;;;;;0.10;0.10;;;;;;;22.86;41.09;100838.03;18293784;32;20110;-59
2022/10/08 13:24:42;;;;;;;0.35;0.35;;;;;;;22.87;40.70;100828.25;18308765;32;20105;-58
2022/10/08 13:34:48;;;;;;;0.20;0.20;;;;;;;23.25;41.61;100830.03;18307602;32;20382;-59
2022/10/08 13:44:51;;;;;;;0.17;0.17;;;;;;;23.37;41.10;100821.44;18307556;32;20547;-59
2022/10/08 13:55:00;;;;;;;0.20;0.20;;;;;;;23.23;41.78;100818.56;18307076;32;20126;-59
2022/10/08 14:05:04;;;;;;;0.10;0.10;;;;;;;23.27;42.71;100809.50;18305421;32;20112;-59
2022/10/08 14:15:10;;;;;;;0.52;0.20;;;;;;;23.23;43.17;100802.56;18306022;32;20100;-59
2022/10/08 14:25:15;;;;;;;0.10;0.10;;;;;;;23.14;43.84;100795.91;18305788;32;20085;-59
2022/10/08 14:35:20;;;;;;;0.20;0.20;;;;;;;23.09;44.28;100785.50;18306032;32;20113;-59
2022/10/08 14:45:24;;;;;;;0.22;0.22;;;;;;;23.07;44.24;100776.72;18305253;32;20098;-58
2022/10/08 14:55:28;;;;;;;0.52;0.28;;;;;;;22.80;44.60;100781.56;18305287;32;20504;-58
2022/10/08 15:05:31;;;;;;;0.75;0.45;;;;;;;22.63;45.80;100782.37;18304708;32;20133;-59
2022/10/08 15:15:39;;;;;;;0.00;0.00;;;;;;;22.27;48.64;100786.63;18303831;32;20151;-58
2022/10/08 15:25:42;;;;;;;0.93;0.30;;;;;;;21.96;49.16;100780.00;18304097;32;20410;-58
2022/10/08 15:35:47;;;;;;;0.08;0.08;;;;;;;21.70;51.37;100779.37;18303709;32;20521;-58
2022/10/08 15:45:50;;;;;;;0.10;0.10;;;;;;;21.40;53.78;100774.41;18303215;32;20452;-58
2022/10/08 15:55:56;;;;;;;4.10;0.65;;;;;;;21.12;54.92;100787.00;18302680;32;20090;-58
2022/10/08 16:05:59;;;;;;;0.32;0.32;;;;;;;20.78;56.46;100788.31;18287809;32;20098;-58
2022/10/08 16:16:04;;;;;;;0.43;0.43;;;;;;;20.44;57.36;100797.53;18287333;32;20117;-58
2022/10/08 16:26:09;;;;;;;0.60;0.50;;;;;;;19.95;58.55;100804.56;18292840;32;20101;-58
2022/10/08 16:36:14;;;;;;;0.22;0.22;;;;;;;19.47;59.46;100810.56;18310194;32;20118;-58
2022/10/08 16:46:18;;;;;;;0.32;0.32;;;;;;;18.99;60.21;100821.75;18308727;32;20468;-58
2022/10/08 16:56:25;;;;;;;1.05;0.57;;;;;;;18.60;60.69;100827.31;18308448;32;20115;-58
2022/10/08 17:06:28;;;;;;;0.70;0.70;;;;;;;18.21;61.32;100840.72;18293219;32;20382;-58
2022/10/08 17:16:33;;;;;;;0.40;0.40;;;;;;;17.86;61.50;100851.28;18308189;32;20180;-58
2022/10/08 17:26:37;;;;;;;0.30;0.30;;;;;;;17.46;62.35;100848.72;18307360;32;20108;-58
2022/10/08 17:36:43;;;;;;;0.30;0.30;;;;;;;17.10;63.31;100853.09;18307152;32;20185;-58
2022/10/08 17:46:47;;;;;;;1.75;0.40;;;;;;;16.82;63.60;100869.47;18306668;32;20089;-58
2022/10/08 17:56:52;;;;;;;1.05;1.05;;;;;;;16.56;63.67;100874.37;18306651;32;20442;-58
2022/10/08 18:06:56;;;;;;;2.25;0.80;;;;;;;16.25;64.35;100890.72;18305731;32;20102;-58
2022/10/08 18:17:06;;;;;;;1.73;0.98;;;;;;;16.03;65.08;100891.13;18307053;32;20094;-58
2022/10/08 18:27:09;;;;;;;2.60;1.27;;;;;;;15.91;64.78;100905.34;18305869;32;20439;-58
2022/10/08 18:37:14;;;;;;;1.55;1.10;;;;;;;15.73;65.17;100902.97;18292858;32;20716;-58
2022/10/08 18:47:17;;;;;;;0.30;0.30;;;;;;;15.65;65.37;100901.34;18304157;32;20131;-58
2022/10/08 18:57:22;;;;;;;1.75;1.50;;;;;;;15.41;65.55;100902.56;18305005;32;20358;-58
2022/10/08 19:07:26;;;;;;;0.95;0.55;;;;;;;15.18;65.77;100905.53;18305535;32;20089;-58
2022/10/08 19:17:30;;;;;;;1.10;1.00;;;;;;;15.05;65.88;100921.47;18304633;32;20113;-58
2022/10/08 19:27:34;;;;;;;1.05;0.90;;;;;;;14.90;66.46;100940.06;18298925;32;20185;-59
2022/10/08 19:37:38;;;;;;;1.50;0.70;;;;;;;14.84;66.54;100944.50;18251999;32;20120;-58
2022/10/08 19:47:41;;;;;;;0.62;0.62;;;;;;;14.78;66.67;100943.69;18267102;32;20108;-58
2022/10/08 19:57:46;;;;;;;0.30;0.30;;;;;;;14.74;66.48;100947.22;18253954;32;20169;-58
2022/10/08 20:07:49;;;;;;;0.70;0.70;;;;;;;14.64;66.96;100951.69;18257558;32;20112;-58
2022/10/08 20:17:53;;;;;;;0.45;0.45;;;;;;;14.57;66.76;100954.38;18265228;32;20116;-58
2022/10/08 20:27:57;;;;;;;1.90;1.37;;;;;;;14.42;67.43;100951.91;18278756;32;20093;-58
2022/10/08 20:38:01;;;;;;;1.30;1.20;;;;;;;14.43;66.79;100966.78;18301650;32;20438;-58
2022/10/08 20:48:04;;;;;;;1.05;1.05;;;;;;;14.37;66.39;100972.97;18261723;32;20134;-58
2022/10/08 20:58:09;;;;;;;1.08;0.98;;;;;;;14.34;66.53;100959.84;18237130;32;20098;-58
2022/10/08 21:08:12;;;;;;;2.97;1.83;;;;;;;14.25;66.75;100965.16;18241400;32;20120;-58
2022/10/08 21:18:16;;;;;;;0.65;0.65;;;;;;;14.15;67.10;100962.63;18244460;32;20097;-58
2022/10/08 21:28:20;;;;;;;2.05;1.20;;;;;;;14.23;66.91;100959.06;18244143;32;20386;-58
2022/10/08 21:38:24;;;;;;;1.85;1.35;;;;;;;14.06;66.75;100956.59;18230125;32;20105;-58
2022/10/08 21:48:29;;;;;;;0.50;0.50;;;;;;;13.94;66.73;100968.94;18243829;32;20175;-58
2022/10/08 21:58:36;;;;;;;1.80;1.25;;;;;;;13.69;67.52;100957.69;18263889;32;20134;-58
2022/10/08 22:08:39;;;;;;;2.37;0.93;;;;;;;13.71;66.86;100951.56;18266803;32;20116;-58
2022/10/08 22:18:43;;;;;;;1.20;0.85;;;;;;;13.55;66.74;100968.25;18305301;32;20142;-58
2022/10/08 22:28:47;;;;;;;1.40;1.10;;;;;;;13.45;66.68;100978.81;18305930;32;20401;-58
2022/10/08 22:38:52;;;;;;;0.80;0.80;;;;;;;13.34;66.87;100977.97;18305731;32;20109;-58
2022/10/08 22:48:57;;;;;;;0.57;0.57;;;;;;;13.21;67.11;100986.75;18305299;32;20102;-58
2022/10/08 22:59:02;;;;;;;1.12;1.10;;;;;;;12.98;67.09;100998.19;18305148;32;20340;-58
2022/10/08 23:09:07;;;;;;;0.70;0.70;;;;;;;12.79;67.74;100995.59;18303745;32;20461;-58
2022/10/08 23:19:12;;;;;;;0.70;0.70;;;;;;;12.81;67.48;101008.69;18252609;32;20177;-58
2022/10/08 23:29:15;;;;;;;0.60;0.60;;;;;;;12.76;67.14;101006.09;18282068;32;20124;-58
2022/10/08 23:39:20;;;;;;;1.02;1.02;;;;;;;12.54;67.59;101011.38;18303943;32;20435;-58
2022/10/08 23:49:23;;;;;;;0.43;0.43;;;;;;;12.52;67.52;101018.34;18303474;32;20403;-58
2022/10/08 23:59:28;;;;;;;1.00;1.00;;;;;;;12.58;67.33;101018.31;18302742;32;20115;-58
